Archival Weather

Ahwaz

Ahwaz, Iran (OIAW)

Report from: Sunday, October 1, 2023 8:00 AM +0330
Current time: Friday, July 19, 2024 6:05 AM +0330

Current weather – Weather history – Daily summaries
Weather forecast

Temperature26.0°C (78.8°F)
Dew point10.0°C (50.0°F)
Winds 6 kts (3.1 m/s, 6.9 mph) West-Northwest (290°)
Visibility5 mi. (8 km)
Altimeter29.77 in.Hg (1008 mB)
Relative humidity37 %
Density altitude1,623 ft. (495 m)
Flight conditions Marginal Visual Meteorological Conditions
Raw dataOIAW 010430Z 29006KT 8000 NSC 26/10 Q1008
An error has occurred. This application may no longer respond until reloaded. Reload 🗙